Time;durP1;ratioP1;P1;durP2;ratioP2;P2;SDS_P1;SDS_P2;PMS_P1;PMS_P2;Temp;Humidity;BMP_temperature;BMP_pressure;BME280_temperature;BME280_humidity;BME280_pressure;Samples;Min_cycle;Max_cycle;Signal;HPM_P1;HPM_P2
2023/11/27 00:03:01;;;;;;;0.77;0.77;;;;;;;5.53;100.00;100791.69;10438013;28;20152;-71
2023/11/27 00:08:02;;;;;;;0.70;0.70;;;;;;;5.55;100.00;100776.25;10457028;28;20029;-71
2023/11/27 00:13:02;;;;;;;2.55;2.45;;;;;;;5.50;100.00;100767.00;10454931;28;20044;-71
2023/11/27 00:18:03;;;;;;;2.80;2.70;;;;;;;5.57;100.00;100765.34;10456410;28;20029;-71
2023/11/27 00:23:03;;;;;;;0.60;0.60;;;;;;;5.53;100.00;100751.41;10456743;28;20068;-72
2023/11/27 00:28:04;;;;;;;4.90;2.55;;;;;;;5.52;100.00;100739.00;10454258;28;20091;-71
2023/11/27 00:33:04;;;;;;;1.33;1.33;;;;;;;5.47;100.00;100719.00;10454216;28;20041;-71
2023/11/27 00:38:05;;;;;;;3.40;3.30;;;;;;;5.51;100.00;100698.84;10454156;28;20121;-71
2023/11/27 00:43:05;;;;;;;0.50;0.50;;;;;;;5.58;100.00;100687.28;10454763;28;20029;-71
2023/11/27 00:48:06;;;;;;;1.30;1.30;;;;;;;5.55;100.00;100678.69;10453810;28;20039;-71
2023/11/27 00:53:07;;;;;;;0.70;0.70;;;;;;;5.64;100.00;100658.88;10453034;28;20036;-71
2023/11/27 00:58:07;;;;;;;0.50;0.50;;;;;;;5.67;100.00;100653.16;10452745;28;20064;-71
2023/11/27 01:03:08;;;;;;;0.77;0.77;;;;;;;5.57;100.00;100649.84;10452305;28;20480;-71
2023/11/27 01:08:08;;;;;;;0.80;0.80;;;;;;;5.59;100.00;100642.44;10451407;28;20039;-71
2023/11/27 01:13:12;;;;;;;0.65;0.65;;;;;;;5.57;100.00;100631.84;10454356;28;20052;-71
2023/11/27 01:18:12;;;;;;;0.70;0.70;;;;;;;5.47;100.00;100612.41;10452858;28;20358;-72
2023/11/27 01:23:14;;;;;;;0.50;0.50;;;;;;;5.45;100.00;100598.31;10451795;28;20084;-72
2023/11/27 01:28:14;;;;;;;0.85;0.85;;;;;;;5.57;100.00;100596.13;10437003;28;20392;-72
2023/11/27 01:33:16;;;;;;;0.50;0.50;;;;;;;5.53;100.00;100594.78;10453169;28;20037;-72
2023/11/27 01:38:16;;;;;;;1.73;1.73;;;;;;;5.55;100.00;100571.25;10453299;28;20127;-72
2023/11/27 01:43:16;;;;;;;0.82;0.82;;;;;;;5.50;100.00;100565.59;10452691;28;20117;-73
2023/11/27 01:48:17;;;;;;;1.58;1.58;;;;;;;5.52;100.00;100553.66;10454875;28;20037;-74
2023/11/27 01:53:17;;;;;;;1.13;1.13;;;;;;;5.44;100.00;100537.56;10452232;28;20049;-73
2023/11/27 01:58:18;;;;;;;0.95;0.95;;;;;;;5.33;100.00;100533.41;10435183;28;20039;-73
2023/11/27 02:03:19;;;;;;;0.50;0.50;;;;;;;5.26;100.00;100518.97;10453685;28;20028;-73
2023/11/27 02:08:20;;;;;;;1.35;1.35;;;;;;;5.25;100.00;100514.63;10450600;28;20118;-73
2023/11/27 02:13:21;;;;;;;1.08;1.08;;;;;;;5.31;100.00;100500.53;10435069;28;20049;-74
2023/11/27 02:18:22;;;;;;;1.13;1.13;;;;;;;5.22;100.00;100492.66;10435551;28;20032;-73
2023/11/27 02:23:22;;;;;;;0.65;0.65;;;;;;;5.20;100.00;100495.53;10458567;28;20087;-73
2023/11/27 02:28:23;;;;;;;3.17;2.97;;;;;;;5.13;100.00;100467.69;10460123;28;20128;-73
2023/11/27 02:33:25;;;;;;;0.50;0.50;;;;;;;5.15;100.00;100460.31;10459722;28;20040;-73
2023/11/27 02:38:25;;;;;;;0.73;0.73;;;;;;;5.06;100.00;100440.72;10442299;28;20415;-73
2023/11/27 02:43:26;;;;;;;0.60;0.60;;;;;;;4.95;100.00;100435.72;10459940;28;20044;-73
2023/11/27 02:48:26;;;;;;;1.13;1.13;;;;;;;4.88;100.00;100432.03;10459443;28;20098;-73
2023/11/27 02:53:28;;;;;;;0.55;0.55;;;;;;;5.11;100.00;100424.94;10460766;28;20091;-74
2023/11/27 02:58:29;;;;;;;0.47;0.47;;;;;;;5.00;100.00;100403.84;10457541;28;20091;-74
2023/11/27 03:03:29;;;;;;;0.50;0.50;;;;;;;5.01;100.00;100400.16;10458776;28;20025;-75
2023/11/27 03:08:30;;;;;;;0.50;0.50;;;;;;;5.07;100.00;100369.09;10458440;28;20029;-74
2023/11/27 03:13:30;;;;;;;0.85;0.85;;;;;;;4.95;100.00;100376.69;10457643;28;20041;-73
2023/11/27 03:18:31;;;;;;;0.60;0.60;;;;;;;4.92;100.00;100358.28;10458475;28;20465;-74
2023/11/27 03:23:31;;;;;;;3.70;3.53;;;;;;;4.86;100.00;100354.44;10456624;28;20143;-74
2023/11/27 03:28:32;;;;;;;1.15;1.15;;;;;;;4.84;100.00;100345.69;10457416;28;20052;-73
2023/11/27 03:33:32;;;;;;;0.60;0.60;;;;;;;4.92;100.00;100336.81;10455858;28;20110;-73
2023/11/27 03:38:33;;;;;;;0.95;0.95;;;;;;;4.85;100.00;100331.31;10457395;28;20036;-73
2023/11/27 03:43:34;;;;;;;0.70;0.70;;;;;;;4.81;100.00;100318.41;10457443;28;20143;-73
2023/11/27 03:48:34;;;;;;;1.38;1.38;;;;;;;4.74;100.00;100302.16;10455080;28;20114;-73
2023/11/27 03:53:35;;;;;;;0.60;0.60;;;;;;;4.83;100.00;100293.06;10457090;28;20462;-73
2023/11/27 03:58:35;;;;;;;0.60;0.60;;;;;;;4.77;100.00;100285.72;10455102;28;20112;-73
2023/11/27 04:03:39;;;;;;;0.50;0.50;;;;;;;4.82;100.00;100266.44;10456164;28;20475;-74
2023/11/27 04:08:41;;;;;;;0.60;0.60;;;;;;;4.79;100.00;100248.84;10454422;28;20478;-73
2023/11/27 04:13:42;;;;;;;0.50;0.50;;;;;;;4.68;100.00;100243.84;10456489;28;20120;-72
2023/11/27 04:18:42;;;;;;;0.77;0.77;;;;;;;4.70;100.00;100230.28;10455667;28;20168;-73
2023/11/27 04:23:48;;;;;;;0.60;0.60;;;;;;;4.65;100.00;100217.38;10453904;28;20091;-73
2023/11/27 04:28:49;;;;;;;0.70;0.70;;;;;;;4.79;100.00;100216.66;10454240;28;20395;-73
2023/11/27 04:33:50;;;;;;;0.60;0.60;;;;;;;4.78;100.00;100198.03;10454731;28;20057;-73
2023/11/27 04:38:51;;;;;;;0.60;0.60;;;;;;;4.81;100.00;100193.16;10437896;28;20044;-73
2023/11/27 04:43:52;;;;;;;1.27;1.27;;;;;;;4.69;100.00;100186.53;10454564;28;20468;-73
2023/11/27 04:48:52;;;;;;;0.77;0.77;;;;;;;4.58;100.00;100168.16;10456946;28;20416;-73
2023/11/27 04:53:53;;;;;;;0.47;0.47;;;;;;;4.62;100.00;100156.88;10454552;28;20052;-74
2023/11/27 04:58:55;;;;;;;0.60;0.60;;;;;;;4.58;100.00;100154.75;10454464;28;20083;-73
2023/11/27 05:03:55;;;;;;;2.47;2.38;;;;;;;4.58;100.00;100136.00;10453425;28;20141;-73
2023/11/27 05:08:56;;;;;;;0.77;0.77;;;;;;;4.53;100.00;100128.50;10452755;28;20053;-73
2023/11/27 05:13:56;;;;;;;0.50;0.50;;;;;;;4.55;100.00;100120.25;10452594;28;20097;-73
2023/11/27 05:18:57;;;;;;;0.68;0.68;;;;;;;4.49;100.00;100104.88;10453960;28;20040;-74
2023/11/27 05:23:57;;;;;;;0.80;0.80;;;;;;;4.59;100.00;100110.84;10453236;28;20558;-73
2023/11/27 05:28:58;;;;;;;0.57;0.57;;;;;;;4.49;100.00;100099.50;10452725;28;20417;-73
2023/11/27 05:33:58;;;;;;;0.70;0.70;;;;;;;4.48;100.00;100090.63;10419497;28;20033;-72
2023/11/27 05:39:00;;;;;;;0.70;0.70;;;;;;;4.49;100.00;100078.06;10453266;28;20125;-73
2023/11/27 05:44:03;;;;;;;0.50;0.50;;;;;;;4.49;100.00;100072.69;10452626;28;20033;-73
2023/11/27 05:49:05;;;;;;;0.60;0.60;;;;;;;4.55;100.00;100064.78;10452149;28;20029;-73
2023/11/27 05:54:06;;;;;;;0.80;0.80;;;;;;;4.54;100.00;100064.97;10453568;28;20043;-74
2023/11/27 05:59:07;;;;;;;0.93;0.93;;;;;;;4.55;100.00;100055.91;10461487;28;20040;-74
2023/11/27 06:04:09;;;;;;;0.70;0.70;;;;;;;4.53;100.00;100031.97;10462022;28;20115;-73
2023/11/27 06:09:10;;;;;;;0.68;0.68;;;;;;;4.54;100.00;100032.78;10461873;28;20084;-75
2023/11/27 06:14:10;;;;;;;2.33;2.17;;;;;;;4.49;100.00;100021.75;10461559;28;20041;-75
2023/11/27 06:19:11;;;;;;;2.17;1.95;;;;;;;4.55;100.00;100005.78;10459065;28;20059;-74
2023/11/27 06:24:12;;;;;;;0.80;0.80;;;;;;;4.56;100.00;99986.03;10458964;28;20418;-74
2023/11/27 06:29:12;;;;;;;3.50;3.25;;;;;;;4.62;100.00;99966.50;10460145;28;20040;-74
2023/11/27 06:34:13;;;;;;;0.70;0.70;;;;;;;4.66;100.00;99958.97;10459931;28;20139;-74
2023/11/27 06:39:15;;;;;;;0.80;0.80;;;;;;;4.66;100.00;99950.91;10458061;28;20112;-74
2023/11/27 06:44:17;;;;;;;0.60;0.60;;;;;;;4.67;100.00;99939.16;10458374;28;20388;-73
2023/11/27 06:49:18;;;;;;;0.95;0.95;;;;;;;4.72;100.00;99938.59;10457760;28;20048;-73
2023/11/27 06:54:19;;;;;;;0.70;0.70;;;;;;;4.76;100.00;99930.03;10460037;28;20059;-73
2023/11/27 06:59:19;;;;;;;0.60;0.60;;;;;;;4.82;100.00;99918.56;10459254;28;20353;-73
2023/11/27 07:04:20;;;;;;;0.60;0.60;;;;;;;4.85;100.00;99920.00;10440690;28;20336;-73
2023/11/27 07:09:23;;;;;;;1.25;1.25;;;;;;;4.92;100.00;99904.88;10458453;28;20431;-74
2023/11/27 07:14:23;;;;;;;0.57;0.57;;;;;;;5.02;100.00;99900.06;10457911;28;20061;-73
2023/11/27 07:19:25;;;;;;;0.50;0.50;;;;;;;5.05;100.00;99886.25;10458540;28;20066;-75
2023/11/27 07:24:25;;;;;;;0.70;0.70;;;;;;;5.13;100.00;99885.31;10457207;28;20053;-74
2023/11/27 07:29:27;;;;;;;0.50;0.50;;;;;;;5.17;100.00;99870.53;10458530;28;20084;-75
2023/11/27 07:34:27;;;;;;;1.73;1.73;;;;;;;5.20;100.00;99859.41;10457785;28;20037;-74
2023/11/27 07:39:28;;;;;;;3.70;2.88;;;;;;;5.29;100.00;99852.06;10457354;28;20043;-75
2023/11/27 07:44:29;;;;;;;0.88;0.88;;;;;;;5.37;100.00;99838.53;10456858;28;20114;-74
2023/11/27 07:49:29;;;;;;;1.08;1.05;;;;;;;5.42;100.00;99827.22;10457582;28;20103;-75
2023/11/27 07:54:31;;;;;;;0.65;0.65;;;;;;;5.47;100.00;99822.94;10457517;28;20437;-75
2023/11/27 07:59:31;;;;;;;1.58;1.58;;;;;;;5.49;100.00;99812.03;10455818;28;20044;-74
2023/11/27 08:04:33;;;;;;;0.70;0.70;;;;;;;5.51;100.00;99815.34;10455363;28;20056;-74
2023/11/27 08:09:34;;;;;;;0.75;0.75;;;;;;;5.63;100.00;99807.59;10454969;28;20024;-74
2023/11/27 08:14:35;;;;;;;0.70;0.70;;;;;;;5.67;100.00;99808.88;10457072;28;20431;-74
2023/11/27 08:19:37;;;;;;;0.93;0.93;;;;;;;5.73;100.00;99797.38;10456796;28;20102;-74
2023/11/27 08:24:40;;;;;;;1.77;1.77;;;;;;;5.81;100.00;99784.63;10454387;28;20095;-74
2023/11/27 08:29:40;;;;;;;0.50;0.50;;;;;;;5.89;100.00;99774.78;10454653;28;20140;-74
2023/11/27 08:34:41;;;;;;;0.82;0.82;;;;;;;5.97;100.00;99755.84;10454229;28;20092;-75
2023/11/27 08:39:43;;;;;;;0.63;0.63;;;;;;;6.04;100.00;99754.03;10437418;28;20131;-74
2023/11/27 08:44:43;;;;;;;0.60;0.60;;;;;;;6.12;100.00;99743.13;10454892;28;20120;-74
2023/11/27 08:49:44;;;;;;;0.60;0.60;;;;;;;6.14;100.00;99730.31;10455626;28;20132;-74
2023/11/27 08:54:44;;;;;;;0.50;0.50;;;;;;;6.27;100.00;99733.09;10455153;28;20095;-75
2023/11/27 08:59:45;;;;;;;0.60;0.60;;;;;;;6.32;100.00;99718.22;10455046;28;20131;-73
2023/11/27 09:04:45;;;;;;;0.50;0.50;;;;;;;6.41;100.00;99706.28;10454899;28;20040;-75
2023/11/27 09:09:46;;;;;;;0.93;0.93;;;;;;;6.48;100.00;99697.22;10454458;28;20132;-75
2023/11/27 09:14:47;;;;;;;0.55;0.55;;;;;;;6.58;100.00;99691.47;10454755;28;20061;-76
2023/11/27 09:19:48;;;;;;;0.90;0.90;;;;;;;6.62;100.00;99679.25;10454865;28;20033;-75
2023/11/27 09:24:48;;;;;;;3.35;3.20;;;;;;;6.70;100.00;99673.72;10453776;28;20136;-75
2023/11/27 09:29:49;;;;;;;0.70;0.70;;;;;;;6.70;100.00;99676.41;10453226;28;20546;-76
2023/11/27 09:34:50;;;;;;;0.68;0.68;;;;;;;6.80;100.00;99675.19;10453635;28;20086;-75
2023/11/27 09:39:50;;;;;;;0.98;0.98;;;;;;;6.83;100.00;99664.00;10452201;28;20025;-75
2023/11/27 09:44:51;;;;;;;1.17;1.17;;;;;;;6.85;100.00;99660.06;10453269;28;20068;-75
2023/11/27 09:49:51;;;;;;;2.38;2.25;;;;;;;6.83;100.00;99647.84;10452873;28;20116;-75
2023/11/27 09:54:55;;;;;;;0.50;0.50;;;;;;;6.96;100.00;99653.28;10435042;28;20378;-75
2023/11/27 09:59:56;;;;;;;0.90;0.90;;;;;;;6.96;100.00;99647.91;10451908;28;20037;-75
2023/11/27 10:05:04;;;;;;;0.68;0.68;;;;;;;7.03;100.00;99640.66;10452259;28;20033;-75
2023/11/27 10:10:05;;;;;;;0.50;0.50;;;;;;;7.00;100.00;99630.31;10452608;28;20033;-75
2023/11/27 10:15:11;;;;;;;0.40;0.40;;;;;;;7.11;100.00;99618.09;10453125;28;20029;-75
2023/11/27 10:20:14;;;;;;;0.73;0.73;;;;;;;7.12;100.00;99604.44;10453605;28;20029;-75
2023/11/27 10:25:24;;;;;;;0.98;0.98;;;;;;;7.09;100.00;99594.06;10436573;28;20049;-75
2023/11/27 10:30:25;;;;;;;0.40;0.40;;;;;;;7.14;100.00;99591.56;10452295;28;20068;-75
2023/11/27 10:35:26;;;;;;;0.40;0.40;;;;;;;7.17;100.00;99584.94;10434432;28;20045;-75
2023/11/27 10:40:26;;;;;;;1.90;1.80;;;;;;;7.13;100.00;99572.94;10436291;28;20026;-75
2023/11/27 10:45:28;;;;;;;0.65;0.65;;;;;;;7.15;100.00;99566.31;10459165;28;20128;-76
2023/11/27 10:50:36;;;;;;;0.40;0.40;;;;;;;7.23;100.00;99557.19;10460015;28;20095;-75
2023/11/27 10:55:36;;;;;;;0.60;0.60;;;;;;;7.32;100.00;99549.75;10445161;28;20040;-75
2023/11/27 11:00:46;;;;;;;0.60;0.60;;;;;;;7.26;100.00;99546.00;10462137;28;20041;-75
2023/11/27 11:05:52;;;;;;;0.50;0.50;;;;;;;7.39;100.00;99539.78;10450852;28;20033;-75
2023/11/27 11:10:56;;;;;;;0.45;0.45;;;;;;;7.46;100.00;99519.03;10445857;28;20033;-75
2023/11/27 11:16:19;;;;;;;0.50;0.50;;;;;;;7.55;100.00;99517.78;10458738;28;20033;-75
2023/11/27 11:21:39;;;;;;;1.05;1.02;;;;;;;7.52;100.00;99504.72;10443636;28;20041;-75
2023/11/27 11:27:16;;;;;;;0.65;0.65;;;;;;;7.62;100.00;99496.19;10441145;28;20052;-74
2023/11/27 11:32:17;;;;;;;1.02;1.02;;;;;;;7.84;100.00;99497.56;10443893;28;20081;-75
2023/11/27 11:37:18;;;;;;;0.65;0.65;;;;;;;7.84;100.00;99488.66;10458384;28;20468;-75
2023/11/27 11:42:24;;;;;;;0.70;0.70;;;;;;;7.95;100.00;99485.28;10458295;28;20057;-75
2023/11/27 11:47:26;;;;;;;0.50;0.50;;;;;;;8.00;100.00;99473.84;10442069;28;20087;-74
2023/11/27 11:52:26;;;;;;;1.02;1.02;;;;;;;7.79;100.00;99469.63;10456216;28;20132;-75
2023/11/27 11:57:27;;;;;;;0.77;0.77;;;;;;;7.60;100.00;99466.78;10457896;28;20540;-76
2023/11/27 12:02:27;;;;;;;0.57;0.57;;;;;;;7.55;100.00;99438.84;10458305;28;20037;-75
2023/11/27 12:07:28;;;;;;;0.50;0.50;;;;;;;7.53;100.00;99433.66;10440556;28;20511;-75
2023/11/27 12:12:29;;;;;;;1.15;1.15;;;;;;;7.37;100.00;99432.28;10457463;28;20049;-74
2023/11/27 12:17:30;;;;;;;0.82;0.82;;;;;;;7.11;100.00;99425.09;10455693;28;20104;-74
2023/11/27 12:22:32;;;;;;;0.47;0.47;;;;;;;6.91;100.00;99416.25;10457288;28;20064;-74
2023/11/27 12:27:34;;;;;;;3.20;1.85;;;;;;;6.79;100.00;99410.66;10456217;28;20037;-75
2023/11/27 12:32:35;;;;;;;0.50;0.50;;;;;;;6.67;100.00;99394.34;10423025;28;20376;-74
2023/11/27 12:37:40;;;;;;;0.50;0.50;;;;;;;6.60;100.00;99401.59;10455161;28;20039;-74
2023/11/27 12:42:42;;;;;;;0.60;0.60;;;;;;;6.35;100.00;99395.19;10455003;28;20025;-73
2023/11/27 12:47:50;;;;;;;0.52;0.52;;;;;;;6.29;100.00;99395.00;10454924;28;20095;-74
2023/11/27 12:52:51;;;;;;;0.93;0.93;;;;;;;6.33;100.00;99391.91;10455733;28;20029;-73
2023/11/27 12:57:51;;;;;;;2.28;2.17;;;;;;;6.41;100.00;99388.97;10436838;28;20411;-73
2023/11/27 13:02:52;;;;;;;0.93;0.93;;;;;;;6.40;100.00;99381.97;10454511;28;20045;-73
2023/11/27 13:07:57;;;;;;;0.63;0.63;;;;;;;6.41;100.00;99370.16;10436297;28;20572;-73
2023/11/27 13:12:57;;;;;;;1.17;0.95;;;;;;;6.46;100.00;99365.81;10436315;28;20051;-73
2023/11/27 13:18:00;;;;;;;0.77;0.77;;;;;;;6.60;100.00;99352.34;10454462;28;20044;-73
2023/11/27 13:23:01;;;;;;;1.17;1.17;;;;;;;6.64;100.00;99342.84;10453402;28;20144;-73
2023/11/27 13:28:09;;;;;;;0.98;0.98;;;;;;;6.63;100.00;99335.78;10452970;28;20059;-72
2023/11/27 13:33:10;;;;;;;;;;;;;;;6.65;100.00;99325.66;10452871;28;20479;-73
2023/11/27 13:38:17;;;;;;;0.50;0.50;;;;;;;6.71;100.00;99317.56;10452417;28;19998;-72
2023/11/27 13:43:18;;;;;;;0.73;0.73;;;;;;;6.75;100.00;99326.03;10451056;28;20421;-72
2023/11/27 13:48:25;;;;;;;1.25;1.25;;;;;;;6.74;100.00;99314.47;10452762;28;20037;-72
2023/11/27 13:53:31;;;;;;;0.50;0.50;;;;;;;6.77;100.00;99315.09;10453095;28;20057;-72
2023/11/27 13:58:32;;;;;;;0.60;0.60;;;;;;;6.79;100.00;99319.19;10452561;28;20095;-72
2023/11/27 14:03:35;;;;;;;0.75;0.75;;;;;;;6.67;100.00;99319.03;10451768;28;20377;-72
2023/11/27 14:08:51;;;;;;;0.70;0.70;;;;;;;6.58;100.00;99320.28;10453652;28;20033;-72
2023/11/27 14:13:56;;;;;;;0.65;0.65;;;;;;;6.63;100.00;99314.28;10454836;28;20190;-72
2023/11/27 14:30:12;;;;;;;0.88;0.88;;;;;;;6.44;100.00;99303.34;10409891;28;20527;-72
2023/11/27 14:35:15;;;;;;;0.55;0.55;;;;;;;6.41;100.00;99303.75;10461427;28;20353;-72
2023/11/27 14:40:19;;;;;;;0.40;0.40;;;;;;;6.40;100.00;99298.59;10460460;28;20465;-72
2023/11/27 14:45:20;;;;;;;0.60;0.60;;;;;;;6.29;100.00;99310.84;10442818;28;20086;-72
2023/11/27 14:50:28;;;;;;;0.40;0.40;;;;;;;6.22;100.00;99302.78;10460652;28;20037;-72
2023/11/27 14:55:32;;;;;;;0.70;0.70;;;;;;;6.09;100.00;99305.44;10459192;28;20389;-72
2023/11/27 15:00:34;;;;;;;1.00;1.00;;;;;;;6.04;100.00;99308.78;10459924;28;20052;-72
2023/11/27 15:05:35;;;;;;;0.82;0.82;;;;;;;5.97;100.00;99299.06;10460003;28;20025;-72
2023/11/27 15:10:35;;;;;;;0.88;0.88;;;;;;;5.98;100.00;99306.91;10459416;28;20040;-72
2023/11/27 15:15:36;;;;;;;0.55;0.55;;;;;;;5.88;100.00;99309.16;10460970;28;20041;-72
2023/11/27 15:20:36;;;;;;;1.00;1.00;;;;;;;5.86;100.00;99307.72;10442596;28;20041;-72
2023/11/27 15:25:37;;;;;;;1.48;1.45;;;;;;;5.79;100.00;99296.97;10458595;28;20107;-72
2023/11/27 15:30:38;;;;;;;1.67;1.55;;;;;;;5.75;100.00;99315.34;10458600;28;20460;-73
2023/11/27 15:35:38;;;;;;;0.68;0.68;;;;;;;5.79;100.00;99319.28;10458752;28;20024;-73
2023/11/27 15:40:39;;;;;;;0.50;0.50;;;;;;;5.77;100.00;99323.19;10461113;28;20029;-73
2023/11/27 15:45:42;;;;;;;0.57;0.57;;;;;;;5.68;100.00;99327.94;10457800;28;20033;-73
2023/11/27 15:50:43;;;;;;;0.50;0.50;;;;;;;5.67;100.00;99320.91;10458937;28;20111;-75
2023/11/27 15:55:43;;;;;;;1.40;1.40;;;;;;;5.62;100.00;99328.75;10426563;28;20100;-75
2023/11/27 16:00:48;;;;;;;0.80;0.80;;;;;;;5.53;100.00;99325.44;10460768;28;20040;-75
2023/11/27 16:05:50;;;;;;;1.08;1.08;;;;;;;5.49;100.00;99326.06;10458462;28;20045;-75
2023/11/27 16:10:51;;;;;;;0.60;0.60;;;;;;;5.49;100.00;99331.44;10458366;28;20056;-76
2023/11/27 16:15:54;;;;;;;0.60;0.60;;;;;;;5.42;100.00;99333.25;10458063;28;20077;-75
2023/11/27 16:20:59;;;;;;;0.60;0.60;;;;;;;5.38;100.00;99326.63;10458160;28;20029;-76
2023/11/27 16:26:00;;;;;;;0.70;0.70;;;;;;;5.37;100.00;99341.91;10457287;28;20048;-76
2023/11/27 16:31:02;;;;;;;0.60;0.60;;;;;;;5.26;100.00;99337.94;10457273;28;20432;-76
2023/11/27 16:36:03;;;;;;;1.33;1.33;;;;;;;5.22;100.00;99344.75;10457421;28;20460;-76
2023/11/27 16:41:05;;;;;;;1.08;1.08;;;;;;;5.23;100.00;99353.63;10457274;28;20070;-75
2023/11/27 16:46:09;;;;;;;1.55;1.55;;;;;;;5.23;100.00;99357.16;10459021;28;20029;-75
2023/11/27 16:51:09;;;;;;;0.57;0.57;;;;;;;5.15;100.00;99354.63;10447573;28;20033;-75
2023/11/27 16:56:10;;;;;;;1.27;1.27;;;;;;;5.06;100.00;99358.50;10464108;28;20041;-75
2023/11/27 17:01:14;;;;;;;0.75;0.75;;;;;;;5.08;100.00;99365.34;10457068;28;20049;-75
2023/11/27 17:06:16;;;;;;;0.50;0.50;;;;;;;4.98;100.00;99361.34;10454821;28;20041;-75
2023/11/27 17:11:17;;;;;;;1.05;1.05;;;;;;;4.85;100.00;99372.84;10455761;28;20082;-75
2023/11/27 17:16:18;;;;;;;0.60;0.60;;;;;;;4.68;100.00;99377.69;10455562;28;20480;-75
2023/11/27 17:21:18;;;;;;;2.85;2.65;;;;;;;4.58;100.00;99396.00;10453611;28;20127;-75
2023/11/27 17:26:19;;;;;;;0.60;0.60;;;;;;;4.48;100.00;99387.47;10454631;28;20135;-75
2023/11/27 17:31:20;;;;;;;0.60;0.60;;;;;;;4.49;100.00;99397.16;10437606;28;20445;-75
2023/11/27 17:36:21;;;;;;;0.60;0.60;;;;;;;4.30;100.00;99404.03;10455904;28;20132;-75
2023/11/27 17:41:21;;;;;;;0.70;0.70;;;;;;;4.16;100.00;99413.81;10455224;28;20419;-74
2023/11/27 17:46:23;;;;;;;0.70;0.70;;;;;;;4.09;100.00;99420.97;10454592;28;20033;-74
2023/11/27 17:51:25;;;;;;;1.00;1.00;;;;;;;4.07;100.00;99423.81;10459847;28;20033;-74
2023/11/27 17:56:27;;;;;;;0.80;0.80;;;;;;;4.02;100.00;99433.44;10462398;28;20036;-74
2023/11/27 18:01:28;;;;;;;1.10;1.10;;;;;;;3.92;100.00;99433.75;10461108;28;20487;-74
2023/11/27 18:06:29;;;;;;;0.60;0.60;;;;;;;3.84;100.00;99434.72;10461456;28;20124;-74
2023/11/27 18:11:29;;;;;;;0.70;0.70;;;;;;;3.71;100.00;99451.47;10442526;28;20124;-74
2023/11/27 18:16:30;;;;;;;0.90;0.90;;;;;;;3.62;100.00;99459.78;10459115;28;20060;-73
2023/11/27 18:21:31;;;;;;;0.70;0.70;;;;;;;3.53;100.00;99464.41;10458985;28;20052;-73
2023/11/27 18:26:31;;;;;;;0.70;0.70;;;;;;;3.56;100.00;99473.94;10460168;28;20392;-73
2023/11/27 18:31:32;;;;;;;0.75;0.75;;;;;;;3.70;100.00;99473.06;10459381;28;20035;-74
2023/11/27 18:36:33;;;;;;;0.70;0.70;;;;;;;3.71;100.00;99478.25;10460966;28;20025;-73
2023/11/27 18:41:35;;;;;;;0.80;0.80;;;;;;;3.57;100.00;99486.28;10459736;28;20033;-74
2023/11/27 18:46:35;;;;;;;0.90;0.90;;;;;;;3.46;100.00;99498.31;10457902;28;20437;-74
2023/11/27 18:51:37;;;;;;;0.70;0.70;;;;;;;3.31;100.00;99498.31;10458795;28;20040;-73
2023/11/27 18:56:37;;;;;;;1.00;1.00;;;;;;;3.24;100.00;99497.38;10458965;28;20618;-73
2023/11/27 19:01:39;;;;;;;0.98;0.98;;;;;;;3.22;100.00;99513.63;10457978;28;20120;-73
2023/11/27 19:06:43;;;;;;;0.60;0.60;;;;;;;3.20;100.00;99514.81;10458582;28;20107;-73
2023/11/27 19:11:43;;;;;;;0.55;0.55;;;;;;;3.20;100.00;99522.84;10457664;28;20041;-73
2023/11/27 19:16:44;;;;;;;0.95;0.95;;;;;;;3.16;100.00;99529.56;10439947;28;20040;-73
2023/11/27 19:21:45;;;;;;;0.80;0.80;;;;;;;3.12;100.00;99528.28;10457511;28;20167;-74
2023/11/27 19:26:45;;;;;;;0.80;0.80;;;;;;;3.09;100.00;99529.47;10456146;28;20063;-73
2023/11/27 19:31:47;;;;;;;0.75;0.75;;;;;;;3.08;100.00;99535.00;10458626;28;20029;-74
2023/11/27 19:36:48;;;;;;;1.40;1.40;;;;;;;3.01;100.00;99543.75;10458377;28;20060;-74
2023/11/27 19:41:50;;;;;;;0.70;0.70;;;;;;;2.97;100.00;99544.31;10458258;28;20040;-75
2023/11/27 19:46:59;;;;;;;1.13;1.13;;;;;;;3.00;100.00;99552.81;10457911;28;20445;-74
2023/11/27 19:52:00;;;;;;;0.70;0.70;;;;;;;3.03;100.00;99564.97;10456359;28;20472;-73
2023/11/27 19:57:03;;;;;;;0.70;0.70;;;;;;;3.06;100.00;99564.59;10456980;28;20037;-73
2023/11/27 20:02:04;;;;;;;1.10;1.10;;;;;;;3.04;100.00;99569.31;10456528;28;20033;-74
2023/11/27 20:07:04;;;;;;;0.80;0.80;;;;;;;3.10;100.00;99568.59;10456675;28;20025;-74
2023/11/27 20:12:05;;;;;;;0.60;0.60;;;;;;;3.16;100.00;99578.56;10456334;28;20528;-74
2023/11/27 20:17:05;;;;;;;0.85;0.85;;;;;;;3.12;100.00;99584.44;10455669;28;20082;-74
2023/11/27 20:22:07;;;;;;;0.98;0.98;;;;;;;3.08;100.00;99575.13;10454763;28;20036;-73
2023/11/27 20:27:07;;;;;;;1.17;1.17;;;;;;;3.01;100.00;99593.75;10455762;28;20053;-71
2023/11/27 20:32:08;;;;;;;0.47;0.47;;;;;;;3.03;100.00;99595.22;10453781;28;20037;-72
2023/11/27 20:37:09;;;;;;;1.30;1.30;;;;;;;3.02;100.00;99596.22;10455442;28;20086;-74
2023/11/27 20:42:11;;;;;;;1.80;1.80;;;;;;;3.04;100.00;99601.41;10455302;28;20029;-71
2023/11/27 20:47:12;;;;;;;3.67;1.92;;;;;;;2.98;100.00;99604.81;10454948;28;20128;-72
2023/11/27 20:52:13;;;;;;;0.77;0.77;;;;;;;2.98;100.00;99618.19;10453455;28;20087;-72
2023/11/27 20:57:14;;;;;;;1.33;1.33;;;;;;;3.00;100.00;99630.38;10453831;28;20456;-73
2023/11/27 21:02:14;;;;;;;1.45;1.35;;;;;;;3.06;100.00;99633.31;10435666;28;20067;-72
2023/11/27 21:07:15;;;;;;;0.60;0.60;;;;;;;2.98;100.00;99655.63;10453655;28;20484;-72
2023/11/27 21:12:16;;;;;;;0.70;0.70;;;;;;;3.10;100.00;99656.03;10452104;28;20076;-73
2023/11/27 21:17:19;;;;;;;0.70;0.70;;;;;;;3.05;100.00;99677.94;10452634;28;20118;-73
2023/11/27 21:22:20;;;;;;;0.80;0.80;;;;;;;3.03;100.00;99687.97;10452096;28;20060;-72
2023/11/27 21:27:20;;;;;;;0.70;0.70;;;;;;;3.11;100.00;99695.97;10450923;28;20076;-73
2023/11/27 21:32:21;;;;;;;0.65;0.65;;;;;;;3.11;100.00;99706.66;10453032;28;20460;-73
2023/11/27 21:37:22;;;;;;;0.85;0.85;;;;;;;3.20;100.00;99708.25;10435663;28;20120;-73
2023/11/27 21:42:25;;;;;;;0.77;0.77;;;;;;;3.12;100.00;99702.97;10452794;28;20495;-73
2023/11/27 21:47:27;;;;;;;5.18;2.15;;;;;;;3.15;100.00;99718.66;10435033;28;20072;-73
2023/11/27 21:52:28;;;;;;;1.30;1.30;;;;;;;3.22;100.00;99719.63;10451994;28;20048;-74
2023/11/27 21:57:28;;;;;;;0.88;0.88;;;;;;;3.22;100.00;99738.34;10454288;28;20063;-73
2023/11/27 22:02:30;;;;;;;0.70;0.70;;;;;;;3.07;100.00;99755.34;10453013;28;20041;-73
2023/11/27 22:07:32;;;;;;;0.90;0.90;;;;;;;2.84;100.00;99756.16;10452826;28;20425;-72
2023/11/27 22:12:34;;;;;;;0.52;0.52;;;;;;;2.87;100.00;99768.31;10450562;28;20041;-71
2023/11/27 22:17:35;;;;;;;0.90;0.90;;;;;;;2.87;100.00;99761.16;10452031;28;20028;-72
2023/11/27 22:22:37;;;;;;;2.45;2.35;;;;;;;2.83;100.00;99770.50;10451305;28;20128;-72
2023/11/27 22:27:38;;;;;;;1.70;1.70;;;;;;;2.90;100.00;99774.13;10453090;28;20037;-71
2023/11/27 22:32:38;;;;;;;0.77;0.77;;;;;;;2.85;100.00;99784.53;10452113;28;20047;-71
2023/11/27 22:37:39;;;;;;;0.68;0.68;;;;;;;2.93;100.00;99786.31;10441600;28;20048;-71
2023/11/27 22:42:40;;;;;;;10.07;9.07;;;;;;;2.99;100.00;99796.31;10460141;28;20468;-71
2023/11/27 22:47:41;;;;;;;11.57;9.77;;;;;;;3.05;100.00;99808.16;10442382;28;20067;-71
2023/11/27 22:52:42;;;;;;;11.32;10.10;;;;;;;3.07;100.00;99827.56;10458712;28;20037;-71
2023/11/27 22:57:42;;;;;;;11.00;9.82;;;;;;;3.17;100.00;99831.66;10440974;28;20037;-70
2023/11/27 23:02:43;;;;;;;10.18;9.13;;;;;;;3.31;100.00;99838.09;10456902;28;20040;-70
2023/11/27 23:07:43;;;;;;;8.45;7.70;;;;;;;3.35;100.00;99839.44;10458616;28;20044;-71
2023/11/27 23:12:44;;;;;;;7.40;6.68;;;;;;;3.42;100.00;99864.47;10439846;28;20341;-70
2023/11/27 23:17:45;;;;;;;6.60;5.95;;;;;;;3.36;100.00;99869.69;10456156;28;20040;-71
2023/11/27 23:22:45;;;;;;;5.30;4.88;;;;;;;3.24;100.00;99878.09;10440861;28;20033;-70
2023/11/27 23:27:46;;;;;;;6.82;5.97;;;;;;;3.22;100.00;99900.69;10456923;28;20036;-70
2023/11/27 23:32:46;;;;;;;7.85;5.57;;;;;;;3.21;100.00;99897.19;10457662;28;20083;-71